sensor_id;sensor_type;location;lat;lon;timestamp;P1;durP1;ratioP1;P2;durP2;ratioP2
85301;SDS011;75707;46.948;7.410;2024-03-23T00:55:14;3.299999952;;;1.799999952;;
85301;SDS011;75707;46.948;7.410;2024-03-23T00:56:17;3.099999905;;;2.099999905;;
85301;SDS011;75707;46.948;7.410;2024-03-23T00:57:20;2.5;;;2.099999905;;
85301;SDS011;75707;46.948;7.410;2024-03-23T00:58:23;4.400000095;;;2;;
85301;SDS011;75707;46.948;7.410;2024-03-23T00:59:25;3.400000095;;;2;;
85301;SDS011;75707;46.948;7.410;2024-03-23T01:00:28;5.300000191;;;2.299999952;;
85301;SDS011;75707;46.948;7.410;2024-03-23T01:01:30;2.599999905;;;2.099999905;;
85301;SDS011;75707;46.948;7.410;2024-03-23T01:03:06;3.400000095;;;2.099999905;;
85301;SDS011;75707;46.948;7.410;2024-03-23T01:04:08;2.799999952;;;2.099999905;;
85301;SDS011;75707;46.948;7.410;2024-03-23T01:05:48;2.799999952;;;2.099999905;;
85301;SDS011;75707;46.948;7.410;2024-03-23T01:07:17;3.400000095;;;1.899999976;;
85301;SDS011;75707;46.948;7.410;2024-03-23T01:08:20;3.299999952;;;1.899999976;;
85301;SDS011;75707;46.948;7.410;2024-03-23T01:09:23;3.099999905;;;2;;
85301;SDS011;75707;46.948;7.410;2024-03-23T01:10:26;3.5;;;2.099999905;;
85301;SDS011;75707;46.948;7.410;2024-03-23T01:11:29;3.5;;;2;;
85301;SDS011;75707;46.948;7.410;2024-03-23T01:12:31;3.700000048;;;1.899999976;;
85301;SDS011;75707;46.948;7.410;2024-03-23T01:14:04;2.299999952;;;2;;
85301;SDS011;75707;46.948;7.410;2024-03-23T01:15:06;2.099999905;;;1.899999976;;
85301;SDS011;75707;46.948;7.410;2024-03-23T01:16:09;2.700000048;;;1.799999952;;
85301;SDS011;75707;46.948;7.410;2024-03-23T01:17:12;2.400000095;;;1.899999976;;
85301;SDS011;75707;46.948;7.410;2024-03-23T01:18:14;2.5;;;2.099999905;;
85301;SDS011;75707;46.948;7.410;2024-03-23T01:19:17;1.899999976;;;1.799999952;;
85301;SDS011;75707;46.948;7.410;2024-03-23T01:20:20;1.799999952;;;1.700000048;;
85301;SDS011;75707;46.948;7.410;2024-03-23T01:21:22;2.099999905;;;1.899999976;;
85301;SDS011;75707;46.948;7.410;2024-03-23T01:22:26;3.700000048;;;1.700000048;;
85301;SDS011;75707;46.948;7.410;2024-03-23T01:23:29;1.799999952;;;1.5;;
85301;SDS011;75707;46.948;7.410;2024-03-23T01:24:33;2.400000095;;;1.600000024;;
85301;SDS011;75707;46.948;7.410;2024-03-23T01:26:08;1.899999976;;;1.700000048;;
85301;SDS011;75707;46.948;7.410;2024-03-23T01:27:11;2.299999952;;;1.700000048;;
85301;SDS011;75707;46.948;7.410;2024-03-23T01:28:13;2.400000095;;;1.700000048;;
85301;SDS011;75707;46.948;7.410;2024-03-23T01:29:16;1.700000048;;;1.600000024;;
85301;SDS011;75707;46.948;7.410;2024-03-23T01:30:19;2.299999952;;;1.600000024;;
85301;SDS011;75707;46.948;7.410;2024-03-23T01:31:21;2.099999905;;;1.700000048;;
85301;SDS011;75707;46.948;7.410;2024-03-23T01:32:24;2.400000095;;;1.799999952;;
85301;SDS011;75707;46.948;7.410;2024-03-23T01:33:26;3.099999905;;;1.899999976;;
85301;SDS011;75707;46.948;7.410;2024-03-23T01:34:30;2.900000095;;;2;;
85301;SDS011;75707;46.948;7.410;2024-03-23T01:35:33;2.5;;;1.799999952;;
85301;SDS011;75707;46.948;7.410;2024-03-23T01:37:07;2.299999952;;;2;;
85301;SDS011;75707;46.948;7.410;2024-03-23T01:38:10;2;;;1.799999952;;
85301;SDS011;75707;46.948;7.410;2024-03-23T01:39:13;2.400000095;;;1.899999976;;
85301;SDS011;75707;46.948;7.410;2024-03-23T01:40:16;3;;;1.600000024;;
85301;SDS011;75707;46.948;7.410;2024-03-23T01:41:19;2.400000095;;;1.700000048;;
85301;SDS011;75707;46.948;7.410;2024-03-23T01:42:22;2.099999905;;;2;;
85301;SDS011;75707;46.948;7.410;2024-03-23T01:43:25;2;;;1.700000048;;
85301;SDS011;75707;46.948;7.410;2024-03-23T01:44:27;2.200000048;;;1.799999952;;
85301;SDS011;75707;46.948;7.410;2024-03-23T01:45:31;2.400000095;;;1.600000024;;
85301;SDS011;75707;46.948;7.410;2024-03-23T01:47:06;1.600000024;;;1.5;;
85301;SDS011;75707;46.948;7.410;2024-03-23T01:48:08;2.099999905;;;1.899999976;;
85301;SDS011;75707;46.948;7.410;2024-03-23T01:49:10;2;;;1.600000024;;
85301;SDS011;75707;46.948;7.410;2024-03-23T01:50:14;2.299999952;;;1.799999952;;
85301;SDS011;75707;46.948;7.410;2024-03-23T01:51:16;2.700000048;;;1.600000024;;
85301;SDS011;75707;46.948;7.410;2024-03-23T01:52:19;2.099999905;;;1.5;;
85301;SDS011;75707;46.948;7.410;2024-03-23T01:53:21;2;;;1.700000048;;
85301;SDS011;75707;46.948;7.410;2024-03-23T01:54:23;1.899999976;;;1.700000048;;
85301;SDS011;75707;46.948;7.410;2024-03-23T01:55:27;1.700000048;;;1.5;;
85301;SDS011;75707;46.948;7.410;2024-03-23T01:56:29;2.5;;;1.899999976;;
85301;SDS011;75707;46.948;7.410;2024-03-23T01:57:33;1.799999952;;;1.700000048;;
85301;SDS011;75707;46.948;7.410;2024-03-23T01:59:08;3.599999905;;;1.899999976;;
85301;SDS011;75707;46.948;7.410;2024-03-23T02:00:11;3.200000048;;;1.600000024;;
85301;SDS011;75707;46.948;7.410;2024-03-23T02:01:13;2.400000095;;;1.600000024;;
85301;SDS011;75707;46.948;7.410;2024-03-23T02:02:16;3;;;2.099999905;;
85301;SDS011;75707;46.948;7.410;2024-03-23T02:03:22;2.599999905;;;1.600000024;;
85301;SDS011;75707;46.948;7.410;2024-03-23T02:04:22;1.899999976;;;1.700000048;;
85301;SDS011;75707;46.948;7.410;2024-03-23T02:05:25;1.700000048;;;1.600000024;;
85301;SDS011;75707;46.948;7.410;2024-03-23T02:06:28;2.5;;;1.799999952;;
85301;SDS011;75707;46.948;7.410;2024-03-23T02:07:30;2;;;1.700000048;;
85301;SDS011;75707;46.948;7.410;2024-03-23T02:08:34;3.400000095;;;2.200000048;;
85301;SDS011;75707;46.948;7.410;2024-03-23T02:10:09;1.799999952;;;1.700000048;;
85301;SDS011;75707;46.948;7.410;2024-03-23T02:11:12;3.200000048;;;1.600000024;;
85301;SDS011;75707;46.948;7.410;2024-03-23T02:12:15;2.200000048;;;1.700000048;;
85301;SDS011;75707;46.948;7.410;2024-03-23T02:13:18;2.700000048;;;1.799999952;;
85301;SDS011;75707;46.948;7.410;2024-03-23T02:14:21;2.099999905;;;1.700000048;;
85301;SDS011;75707;46.948;7.410;2024-03-23T02:15:23;3.200000048;;;1.700000048;;
85301;SDS011;75707;46.948;7.410;2024-03-23T02:16:25;2.099999905;;;1.600000024;;
85301;SDS011;75707;46.948;7.410;2024-03-23T02:17:28;4.199999809;;;1.799999952;;
85301;SDS011;75707;46.948;7.410;2024-03-23T02:18:31;1.899999976;;;1.799999952;;
85301;SDS011;75707;46.948;7.410;2024-03-23T02:19:42;2.700000048;;;1.799999952;;
85301;SDS011;75707;46.948;7.410;2024-03-23T02:21:09;2.299999952;;;1.600000024;;
85301;SDS011;75707;46.948;7.410;2024-03-23T02:22:11;2.200000048;;;1.600000024;;
85301;SDS011;75707;46.948;7.410;2024-03-23T02:23:14;2.5;;;1.799999952;;
85301;SDS011;75707;46.948;7.410;2024-03-23T02:24:17;1.600000024;;;1.5;;
85301;SDS011;75707;46.948;7.410;2024-03-23T02:25:20;1.899999976;;;1.5;;
85301;SDS011;75707;46.948;7.410;2024-03-23T02:26:22;2.200000048;;;1.399999976;;
85301;SDS011;75707;46.948;7.410;2024-03-23T02:27:25;4.599999905;;;1.899999976;;
85301;SDS011;75707;46.948;7.410;2024-03-23T02:28:27;2.200000048;;;1.600000024;;
85301;SDS011;75707;46.948;7.410;2024-03-23T02:29:30;2.799999952;;;1.399999976;;
85301;SDS011;75707;46.948;7.410;2024-03-23T02:30:33;2;;;1.799999952;;
85301;SDS011;75707;46.948;7.410;2024-03-23T02:32:08;3.5;;;1.5;;
85301;SDS011;75707;46.948;7.410;2024-03-23T02:33:12;1.799999952;;;1.700000048;;
85301;SDS011;75707;46.948;7.410;2024-03-23T02:34:15;2.799999952;;;2;;
85301;SDS011;75707;46.948;7.410;2024-03-23T02:35:18;2.400000095;;;1.700000048;;
85301;SDS011;75707;46.948;7.410;2024-03-23T02:36:21;2.099999905;;;1.700000048;;
85301;SDS011;75707;46.948;7.410;2024-03-23T02:37:24;3.099999905;;;1.5;;
85301;SDS011;75707;46.948;7.410;2024-03-23T02:38:26;2.700000048;;;1.5;;
85301;SDS011;75707;46.948;7.410;2024-03-23T02:39:29;2.200000048;;;1.700000048;;
85301;SDS011;75707;46.948;7.410;2024-03-23T02:40:31;1.600000024;;;1.5;;
85301;SDS011;75707;46.948;7.410;2024-03-23T02:41:34;2.599999905;;;1.5;;
85301;SDS011;75707;46.948;7.410;2024-03-23T02:43:08;7.199999809;;;1.700000048;;
85301;SDS011;75707;46.948;7.410;2024-03-23T02:44:10;3.700000048;;;1.600000024;;
85301;SDS011;75707;46.948;7.410;2024-03-23T02:45:13;2.700000048;;;1.600000024;;
85301;SDS011;75707;46.948;7.410;2024-03-23T02:46:16;2.599999905;;;1.600000024;;
85301;SDS011;75707;46.948;7.410;2024-03-23T02:47:19;1.899999976;;;1.600000024;;
85301;SDS011;75707;46.948;7.410;2024-03-23T02:48:21;3.700000048;;;1.5;;
85301;SDS011;75707;46.948;7.410;2024-03-23T02:49:23;1.700000048;;;1.5;;
85301;SDS011;75707;46.948;7.410;2024-03-23T02:50:25;1.600000024;;;1.399999976;;
85301;SDS011;75707;46.948;7.410;2024-03-23T02:51:28;2.900000095;;;1.5;;
85301;SDS011;75707;46.948;7.410;2024-03-23T02:52:30;2;;;1.600000024;;
85301;SDS011;75707;46.948;7.410;2024-03-23T02:53:34;1.899999976;;;1.399999976;;
85301;SDS011;75707;46.948;7.410;2024-03-23T02:55:07;3.599999905;;;1.399999976;;
85301;SDS011;75707;46.948;7.410;2024-03-23T02:56:09;2.5;;;1.399999976;;
85301;SDS011;75707;46.948;7.410;2024-03-23T02:57:11;1.5;;;1.399999976;;
85301;SDS011;75707;46.948;7.410;2024-03-23T02:58:15;2;;;1.399999976;;
85301;SDS011;75707;46.948;7.410;2024-03-23T02:59:17;2.5;;;1.899999976;;
85301;SDS011;75707;46.948;7.410;2024-03-23T03:00:19;2.5;;;1.5;;
85301;SDS011;75707;46.948;7.410;2024-03-23T03:01:23;1.399999976;;;1.299999952;;
85301;SDS011;75707;46.948;7.410;2024-03-23T03:02:25;2.799999952;;;1.5;;
85301;SDS011;75707;46.948;7.410;2024-03-23T03:03:29;2.099999905;;;1.5;;
85301;SDS011;75707;46.948;7.410;2024-03-23T03:04:31;2;;;1.5;;
85301;SDS011;75707;46.948;7.410;2024-03-23T03:05:34;2.700000048;;;1.700000048;;
85301;SDS011;75707;46.948;7.410;2024-03-23T03:07:08;1.799999952;;;1.600000024;;
85301;SDS011;75707;46.948;7.410;2024-03-23T03:08:10;2.400000095;;;1.700000048;;
85301;SDS011;75707;46.948;7.410;2024-03-23T03:09:13;1.899999976;;;1.399999976;;
85301;SDS011;75707;46.948;7.410;2024-03-23T03:10:15;1.799999952;;;1.700000048;;
85301;SDS011;75707;46.948;7.410;2024-03-23T03:11:18;2.200000048;;;1.700000048;;
85301;SDS011;75707;46.948;7.410;2024-03-23T03:12:21;1.5;;;1.399999976;;
85301;SDS011;75707;46.948;7.410;2024-03-23T03:13:24;3.599999905;;;1.5;;
85301;SDS011;75707;46.948;7.410;2024-03-23T03:14:26;1.799999952;;;1.299999952;;
85301;SDS011;75707;46.948;7.410;2024-03-23T03:15:29;2.200000048;;;1.299999952;;
85301;SDS011;75707;46.948;7.410;2024-03-23T03:16:32;1.700000048;;;1.5;;
85301;SDS011;75707;46.948;7.410;2024-03-23T03:18:06;2.099999905;;;1.600000024;;
85301;SDS011;75707;46.948;7.410;2024-03-23T03:19:08;2.299999952;;;1.399999976;;
85301;SDS011;75707;46.948;7.410;2024-03-23T03:20:12;2.599999905;;;1.5;;
85301;SDS011;75707;46.948;7.410;2024-03-23T03:21:15;2.799999952;;;1.200000048;;
85301;SDS011;75707;46.948;7.410;2024-03-23T03:22:18;1.600000024;;;1.5;;
85301;SDS011;75707;46.948;7.410;2024-03-23T03:23:21;2.5;;;1.5;;
85301;SDS011;75707;46.948;7.410;2024-03-23T03:24:24;1.5;;;1.399999976;;
85301;SDS011;75707;46.948;7.410;2024-03-23T03:25:26;2;;;1.200000048;;
85301;SDS011;75707;46.948;7.410;2024-03-23T03:26:29;1.700000048;;;1.5;;
85301;SDS011;75707;46.948;7.410;2024-03-23T03:27:31;3;;;1.600000024;;
85301;SDS011;75707;46.948;7.410;2024-03-23T03:28:34;1.700000048;;;1.399999976;;
85301;SDS011;75707;46.948;7.410;2024-03-23T03:30:10;3;;;1.799999952;;
85301;SDS011;75707;46.948;7.410;2024-03-23T03:31:13;3;;;1.600000024;;
85301;SDS011;75707;46.948;7.410;2024-03-23T03:32:17;1.899999976;;;1.700000048;;
85301;SDS011;75707;46.948;7.410;2024-03-23T03:33:21;2.200000048;;;1.700000048;;
85301;SDS011;75707;46.948;7.410;2024-03-23T03:34:24;1.899999976;;;1.299999952;;
85301;SDS011;75707;46.948;7.410;2024-03-23T03:35:27;2.799999952;;;1.299999952;;
85301;SDS011;75707;46.948;7.410;2024-03-23T03:36:29;1.799999952;;;1.700000048;;
85301;SDS011;75707;46.948;7.410;2024-03-23T03:37:32;1.899999976;;;1.5;;
85301;SDS011;75707;46.948;7.410;2024-03-23T03:39:07;1.899999976;;;1.399999976;;
85301;SDS011;75707;46.948;7.410;2024-03-23T03:40:11;2.900000095;;;1.399999976;;
85301;SDS011;75707;46.948;7.410;2024-03-23T03:41:13;2.599999905;;;1.5;;
85301;SDS011;75707;46.948;7.410;2024-03-23T03:42:17;2;;;1.5;;
85301;SDS011;75707;46.948;7.410;2024-03-23T03:43:19;1.5;;;1.399999976;;
85301;SDS011;75707;46.948;7.410;2024-03-23T03:44:22;2.200000048;;;1.5;;
85301;SDS011;75707;46.948;7.410;2024-03-23T03:45:25;2.5;;;1.5;;
85301;SDS011;75707;46.948;7.410;2024-03-23T03:46:28;2.799999952;;;1.299999952;;
85301;SDS011;75707;46.948;7.410;2024-03-23T03:48:33;1.700000048;;;1.399999976;;
85301;SDS011;75707;46.948;7.410;2024-03-23T03:50:07;3.299999952;;;2.599999905;;
85301;SDS011;75707;46.948;7.410;2024-03-23T03:51:11;6.5;;;2;;
85301;SDS011;75707;46.948;7.410;2024-03-23T03:52:13;2.200000048;;;1.799999952;;
85301;SDS011;75707;46.948;7.410;2024-03-23T03:53:16;3;;;1.5;;
85301;SDS011;75707;46.948;7.410;2024-03-23T03:54:19;2.400000095;;;1.399999976;;
85301;SDS011;75707;46.948;7.410;2024-03-23T03:55:22;4.900000095;;;1.799999952;;
85301;SDS011;75707;46.948;7.410;2024-03-23T03:56:24;2.400000095;;;1.5;;
85301;SDS011;75707;46.948;7.410;2024-03-23T03:57:26;2;;;1.600000024;;
85301;SDS011;75707;46.948;7.410;2024-03-23T03:58:29;4.199999809;;;1.5;;
85301;SDS011;75707;46.948;7.410;2024-03-23T03:59:32;1.899999976;;;1.299999952;;
85301;SDS011;75707;46.948;7.410;2024-03-23T04:01:06;1.700000048;;;1.5;;
85301;SDS011;75707;46.948;7.410;2024-03-23T04:02:09;1.600000024;;;1.399999976;;
85301;SDS011;75707;46.948;7.410;2024-03-23T04:03:12;1.700000048;;;1.600000024;;
85301;SDS011;75707;46.948;7.410;2024-03-23T04:04:14;2.400000095;;;1.5;;
85301;SDS011;75707;46.948;7.410;2024-03-23T04:05:18;3.400000095;;;1.5;;
85301;SDS011;75707;46.948;7.410;2024-03-23T04:06:20;1.5;;;1.200000048;;
85301;SDS011;75707;46.948;7.410;2024-03-23T04:07:22;1.600000024;;;1.299999952;;
85301;SDS011;75707;46.948;7.410;2024-03-23T04:08:25;3.099999905;;;1.5;;
85301;SDS011;75707;46.948;7.410;2024-03-23T04:09:27;1.799999952;;;1.600000024;;
85301;SDS011;75707;46.948;7.410;2024-03-23T04:10:30;3.200000048;;;1.600000024;;
85301;SDS011;75707;46.948;7.410;2024-03-23T04:11:34;1.5;;;1.399999976;;
85301;SDS011;75707;46.948;7.410;2024-03-23T04:13:08;2.5;;;1.700000048;;
85301;SDS011;75707;46.948;7.410;2024-03-23T04:14:11;2;;;1.399999976;;
85301;SDS011;75707;46.948;7.410;2024-03-23T04:15:13;2.700000048;;;1.600000024;;
85301;SDS011;75707;46.948;7.410;2024-03-23T04:16:24;1.700000048;;;1.600000024;;
85301;SDS011;75707;46.948;7.410;2024-03-23T04:17:19;2.200000048;;;1.200000048;;
85301;SDS011;75707;46.948;7.410;2024-03-23T04:18:21;2.200000048;;;1.5;;
85301;SDS011;75707;46.948;7.410;2024-03-23T04:19:25;2.099999905;;;1.299999952;;
85301;SDS011;75707;46.948;7.410;2024-03-23T04:20:28;1.700000048;;;1.600000024;;
85301;SDS011;75707;46.948;7.410;2024-03-23T04:21:31;1.5;;;1.299999952;;
85301;SDS011;75707;46.948;7.410;2024-03-23T04:22:34;2.099999905;;;1.5;;
85301;SDS011;75707;46.948;7.410;2024-03-23T04:24:09;2.299999952;;;1.700000048;;
85301;SDS011;75707;46.948;7.410;2024-03-23T04:25:13;1.299999952;;;1.200000048;;
85301;SDS011;75707;46.948;7.410;2024-03-23T04:26:15;2.700000048;;;1.5;;
85301;SDS011;75707;46.948;7.410;2024-03-23T04:27:18;2;;;1.399999976;;
85301;SDS011;75707;46.948;7.410;2024-03-23T04:28:21;1.5;;;1.399999976;;
85301;SDS011;75707;46.948;7.410;2024-03-23T04:29:24;2.200000048;;;1.700000048;;
85301;SDS011;75707;46.948;7.410;2024-03-23T04:30:27;2.400000095;;;1.5;;
85301;SDS011;75707;46.948;7.410;2024-03-23T04:31:30;3.200000048;;;1.899999976;;
85301;SDS011;75707;46.948;7.410;2024-03-23T04:32:32;1.5;;;1.399999976;;
85301;SDS011;75707;46.948;7.410;2024-03-23T04:34:07;4.099999905;;;1.600000024;;
85301;SDS011;75707;46.948;7.410;2024-03-23T04:35:10;2.200000048;;;1.299999952;;
85301;SDS011;75707;46.948;7.410;2024-03-23T04:36:14;2.5;;;1.600000024;;
85301;SDS011;75707;46.948;7.410;2024-03-23T04:37:16;1.899999976;;;1.399999976;;
85301;SDS011;75707;46.948;7.410;2024-03-23T04:38:20;2.900000095;;;1.700000048;;
85301;SDS011;75707;46.948;7.410;2024-03-23T04:39:23;2.599999905;;;1.399999976;;
85301;SDS011;75707;46.948;7.410;2024-03-23T04:40:26;2;;;1.299999952;;
85301;SDS011;75707;46.948;7.410;2024-03-23T04:41:30;2.900000095;;;1.5;;
85301;SDS011;75707;46.948;7.410;2024-03-23T04:42:32;2.299999952;;;1.200000048;;
85301;SDS011;75707;46.948;7.410;2024-03-23T04:44:08;1.399999976;;;1.100000024;;
85301;SDS011;75707;46.948;7.410;2024-03-23T04:45:10;1.399999976;;;1.200000048;;
85301;SDS011;75707;46.948;7.410;2024-03-23T04:46:13;4.800000191;;;1.399999976;;
85301;SDS011;75707;46.948;7.410;2024-03-23T04:47:16;2.400000095;;;1.200000048;;
85301;SDS011;75707;46.948;7.410;2024-03-23T04:48:19;3.099999905;;;1.299999952;;
85301;SDS011;75707;46.948;7.410;2024-03-23T04:49:21;2.200000048;;;1.200000048;;
85301;SDS011;75707;46.948;7.410;2024-03-23T04:50:25;2.5;;;1;;
85301;SDS011;75707;46.948;7.410;2024-03-23T04:51:27;1.700000048;;;1.200000048;;
85301;SDS011;75707;46.948;7.410;2024-03-23T04:52:29;4.599999905;;;1.200000048;;
85301;SDS011;75707;46.948;7.410;2024-03-23T04:53:32;1.700000048;;;1.100000024;;
85301;SDS011;75707;46.948;7.410;2024-03-23T04:55:07;4.400000095;;;1.799999952;;
85301;SDS011;75707;46.948;7.410;2024-03-23T04:56:10;7.5;;;1.600000024;;
85301;SDS011;75707;46.948;7.410;2024-03-23T04:57:13;1.899999976;;;1.600000024;;
85301;SDS011;75707;46.948;7.410;2024-03-23T04:58:15;4.199999809;;;2;;
85301;SDS011;75707;46.948;7.410;2024-03-23T04:59:18;5.5;;;1.700000048;;
85301;SDS011;75707;46.948;7.410;2024-03-23T05:00:21;5.699999809;;;1.899999976;;
85301;SDS011;75707;46.948;7.410;2024-03-23T05:01:24;3.5;;;1.899999976;;
85301;SDS011;75707;46.948;7.410;2024-03-23T05:02:27;2;;;1.600000024;;
85301;SDS011;75707;46.948;7.410;2024-03-23T05:03:30;2.200000048;;;1.600000024;;
85301;SDS011;75707;46.948;7.410;2024-03-23T05:04:35;3;;;2.099999905;;
85301;SDS011;75707;46.948;7.410;2024-03-23T05:06:08;3.599999905;;;1.799999952;;
85301;SDS011;75707;46.948;7.410;2024-03-23T05:07:12;3.700000048;;;1.899999976;;
85301;SDS011;75707;46.948;7.410;2024-03-23T05:08:14;4.400000095;;;2;;
85301;SDS011;75707;46.948;7.410;2024-03-23T05:09:18;3.099999905;;;2.099999905;;
85301;SDS011;75707;46.948;7.410;2024-03-23T05:10:20;2.700000048;;;2.099999905;;
85301;SDS011;75707;46.948;7.410;2024-03-23T05:11:22;2.700000048;;;2;;
85301;SDS011;75707;46.948;7.410;2024-03-23T05:12:25;3.599999905;;;2.299999952;;
85301;SDS011;75707;46.948;7.410;2024-03-23T05:13:28;2.299999952;;;2.099999905;;
85301;SDS011;75707;46.948;7.410;2024-03-23T05:14:30;3.099999905;;;2.5;;
85301;SDS011;75707;46.948;7.410;2024-03-23T05:15:33;4;;;3;;
85301;SDS011;75707;46.948;7.410;2024-03-23T05:17:07;3.200000048;;;2.900000095;;
85301;SDS011;75707;46.948;7.410;2024-03-23T05:18:10;5.199999809;;;3;;
85301;SDS011;75707;46.948;7.410;2024-03-23T05:19:12;3.200000048;;;2.900000095;;
85301;SDS011;75707;46.948;7.410;2024-03-23T05:20:15;3.5;;;3.200000048;;
85301;SDS011;75707;46.948;7.410;2024-03-23T05:21:18;6.199999809;;;3.200000048;;
85301;SDS011;75707;46.948;7.410;2024-03-23T05:22:22;3.599999905;;;3.299999952;;
85301;SDS011;75707;46.948;7.410;2024-03-23T05:23:25;3.5;;;3.099999905;;
85301;SDS011;75707;46.948;7.410;2024-03-23T05:24:28;5.800000191;;;3.5;;
85301;SDS011;75707;46.948;7.410;2024-03-23T05:25:30;5.099999905;;;3.5;;
85301;SDS011;75707;46.948;7.410;2024-03-23T05:26:32;4.400000095;;;3.599999905;;
85301;SDS011;75707;46.948;7.410;2024-03-23T05:28:08;6.599999905;;;3.700000048;;
85301;SDS011;75707;46.948;7.410;2024-03-23T05:29:10;4.300000191;;;3.900000095;;
85301;SDS011;75707;46.948;7.410;2024-03-23T05:30:12;5.199999809;;;3.900000095;;
85301;SDS011;75707;46.948;7.410;2024-03-23T05:31:22;5.599999905;;;3.599999905;;
85301;SDS011;75707;46.948;7.410;2024-03-23T05:32:18;5.099999905;;;3.700000048;;
85301;SDS011;75707;46.948;7.410;2024-03-23T05:33:21;3.700000048;;;3.400000095;;
85301;SDS011;75707;46.948;7.410;2024-03-23T05:34:24;4.599999905;;;3.900000095;;
85301;SDS011;75707;46.948;7.410;2024-03-23T05:35:28;5.800000191;;;3.599999905;;
85301;SDS011;75707;46.948;7.410;2024-03-23T05:36:31;3.799999952;;;3.5;;
85301;SDS011;75707;46.948;7.410;2024-03-23T05:38:05;3.700000048;;;3.400000095;;
85301;SDS011;75707;46.948;7.410;2024-03-23T05:39:09;4.699999809;;;4;;
85301;SDS011;75707;46.948;7.410;2024-03-23T05:40:12;4;;;3.599999905;;
85301;SDS011;75707;46.948;7.410;2024-03-23T05:42:19;4.699999809;;;3.400000095;;
85301;SDS011;75707;46.948;7.410;2024-03-23T05:43:22;4.400000095;;;3.700000048;;
85301;SDS011;75707;46.948;7.410;2024-03-23T05:44:24;4;;;3.400000095;;
85301;SDS011;75707;46.948;7.410;2024-03-23T05:45:27;3.900000095;;;3.5;;
85301;SDS011;75707;46.948;7.410;2024-03-23T05:46:30;4;;;3.599999905;;
85301;SDS011;75707;46.948;7.410;2024-03-23T05:48:05;3.799999952;;;3.5;;
85301;SDS011;75707;46.948;7.410;2024-03-23T05:49:08;4;;;3.599999905;;
85301;SDS011;75707;46.948;7.410;2024-03-23T05:50:11;3.900000095;;;3.599999905;;
85301;SDS011;75707;46.948;7.410;2024-03-23T05:51:13;4.199999809;;;3.299999952;;
85301;SDS011;75707;46.948;7.410;2024-03-23T05:52:16;3.599999905;;;3.400000095;;
85301;SDS011;75707;46.948;7.410;2024-03-23T05:53:19;3.799999952;;;3.400000095;;
85301;SDS011;75707;46.948;7.410;2024-03-23T05:54:21;4.599999905;;;3.400000095;;
85301;SDS011;75707;46.948;7.410;2024-03-23T05:55:24;3.700000048;;;3.400000095;;
85301;SDS011;75707;46.948;7.410;2024-03-23T05:56:26;4;;;3.700000048;;
85301;SDS011;75707;46.948;7.410;2024-03-23T05:57:28;3.200000048;;;2.900000095;;
85301;SDS011;75707;46.948;7.410;2024-03-23T05:58:31;4.300000191;;;3;;
85301;SDS011;75707;46.948;7.410;2024-03-23T06:00:05;5;;;3.299999952;;
85301;SDS011;75707;46.948;7.410;2024-03-23T06:01:08;3.5;;;3.200000048;;
85301;SDS011;75707;46.948;7.410;2024-03-23T06:03:14;3.299999952;;;3;;
85301;SDS011;75707;46.948;7.410;2024-03-23T06:05:20;3.700000048;;;3;;
85301;SDS011;75707;46.948;7.410;2024-03-23T06:06:22;4;;;2.799999952;;
85301;SDS011;75707;46.948;7.410;2024-03-23T06:07:25;5.599999905;;;2.799999952;;
85301;SDS011;75707;46.948;7.410;2024-03-23T06:08:27;3.799999952;;;2.599999905;;
85301;SDS011;75707;46.948;7.410;2024-03-23T06:09:29;3.5;;;2.799999952;;
85301;SDS011;75707;46.948;7.410;2024-03-23T06:10:32;3.099999905;;;2.799999952;;
85301;SDS011;75707;46.948;7.410;2024-03-23T06:12:07;3.200000048;;;2.400000095;;
85301;SDS011;75707;46.948;7.410;2024-03-23T06:13:09;3.200000048;;;2.900000095;;
85301;SDS011;75707;46.948;7.410;2024-03-23T06:14:12;3.700000048;;;3;;
85301;SDS011;75707;46.948;7.410;2024-03-23T06:15:14;2.799999952;;;2.599999905;;
85301;SDS011;75707;46.948;7.410;2024-03-23T06:17:21;5.400000095;;;2.400000095;;
85301;SDS011;75707;46.948;7.410;2024-03-23T06:18:23;4.5;;;2.599999905;;
85301;SDS011;75707;46.948;7.410;2024-03-23T06:19:26;4;;;2.5;;
85301;SDS011;75707;46.948;7.410;2024-03-23T06:20:28;2.799999952;;;2.599999905;;
85301;SDS011;75707;46.948;7.410;2024-03-23T06:21:31;4.5;;;2.400000095;;
85301;SDS011;75707;46.948;7.410;2024-03-23T06:23:05;3.200000048;;;2.299999952;;
85301;SDS011;75707;46.948;7.410;2024-03-23T06:24:08;2.599999905;;;2.400000095;;
85301;SDS011;75707;46.948;7.410;2024-03-23T06:25:11;2.900000095;;;2.400000095;;
85301;SDS011;75707;46.948;7.410;2024-03-23T06:26:13;2.700000048;;;2.400000095;;
85301;SDS011;75707;46.948;7.410;2024-03-23T06:27:16;4.5;;;2.900000095;;
85301;SDS011;75707;46.948;7.410;2024-03-23T06:28:18;2.5;;;2.299999952;;
85301;SDS011;75707;46.948;7.410;2024-03-23T06:29:21;3;;;2.5;;
85301;SDS011;75707;46.948;7.410;2024-03-23T06:30:24;4.300000191;;;2.700000048;;
85301;SDS011;75707;46.948;7.410;2024-03-23T06:31:26;2.099999905;;;2;;
85301;SDS011;75707;46.948;7.410;2024-03-23T06:32:29;3;;;2;;
85301;SDS011;75707;46.948;7.410;2024-03-23T06:33:31;3.099999905;;;2.200000048;;
85301;SDS011;75707;46.948;7.410;2024-03-23T06:35:05;2.599999905;;;2.200000048;;
85301;SDS011;75707;46.948;7.410;2024-03-23T06:36:08;3.900000095;;;2.400000095;;
85301;SDS011;75707;46.948;7.410;2024-03-23T06:37:10;2.5;;;2.200000048;;
85301;SDS011;75707;46.948;7.410;2024-03-23T06:38:12;2.299999952;;;2.200000048;;
85301;SDS011;75707;46.948;7.410;2024-03-23T06:39:14;2;;;1.899999976;;
85301;SDS011;75707;46.948;7.410;2024-03-23T06:40:18;2.5;;;2;;
85301;SDS011;75707;46.948;7.410;2024-03-23T06:41:19;3.700000048;;;1.899999976;;
85301;SDS011;75707;46.948;7.410;2024-03-23T06:42:22;1.799999952;;;1.700000048;;
85301;SDS011;75707;46.948;7.410;2024-03-23T06:43:24;2;;;1.799999952;;
85301;SDS011;75707;46.948;7.410;2024-03-23T06:44:27;2.200000048;;;2;;
85301;SDS011;75707;46.948;7.410;2024-03-23T06:45:30;2.799999952;;;1.600000024;;
85301;SDS011;75707;46.948;7.410;2024-03-23T06:46:34;1.600000024;;;1.5;;